EDDC 192350Z 31003KT 270V360 CAVOK 18/15 Q1020 EDDC 192320Z 20004KT 180V280 CAVOK 19/15 Q1019 EDDC 192250Z 20008KT 9999 -RA NSC 19/15 Q1019 EDDC 192220Z 23010KT 200V270 CAVOK 19/15 Q1020 EDDC 192150Z 26012KT 220V280 9999 -RA NSC 21/14 Q1020 EDDC 192120Z 23012KT 200V290 9999 VCSH NSC 22/10 Q1020 EDDC 192050Z 18011KT CAVOK 22/08 Q1019 EDDC 192020Z 17011KT CAVOK 22/07 Q1019 EDDC 191950Z 18011KT CAVOK 22/07 Q1019 NOSIG EDDC 191920Z 17009KT CAVOK 22/07 Q1019 NOSIG EDDC 191850Z 16009KT CAVOK 22/07 Q1018 NOSIG EDDC 191820Z 17010KT CAVOK 23/07 Q1019 NOSIG EDDC 191750Z 17010KT CAVOK 24/07 Q1019 NOSIG EDDC 191720Z 16008KT CAVOK 24/08 Q1019 NOSIG EDDC 191650Z 17010KT CAVOK 24/07 Q1019 NOSIG EDDC 191620Z 17011KT CAVOK 25/07 Q1019 NOSIG EDDC 191550Z 16010KT CAVOK 26/08 Q1019 NOSIG EDDC 191520Z 16012KT 140V210 CAVOK 25/06 Q1019 NOSIG EDDC 191450Z 16011KT 120V190 CAVOK 26/07 Q1020 NOSIG EDDC 191420Z 16012KT CAVOK 26/06 Q1020 NOSIG EDDC 191350Z 16010KT 110V190 CAVOK 25/04 Q1020 NOSIG EDDC 191320Z 16012KT 140V200 CAVOK 25/05 Q1021 NOSIG EDDC 191250Z 17010KT 140V200 CAVOK 25/03 Q1021 NOSIG EDDC 191220Z 16010KT 120V190 CAVOK 25/03 Q1021 NOSIG EDDC 191150Z 16010KT 130V200 CAVOK 24/03 Q1022 NOSIG EDDC 191120Z 17012KT 140V210 CAVOK 24/04 Q1022 NOSIG EDDC 191050Z 17012KT 140V210 CAVOK 24/05 Q1022 NOSIG EDDC 191020Z 16012KT CAVOK 23/06 Q1023 NOSIG EDDC 190950Z 15013KT CAVOK 22/05 Q1023 NOSIG EDDC 190920Z 17015KT 140V200 CAVOK 23/06 Q1023 NOSIG EDDC 190850Z 17012KT CAVOK 22/06 Q1023 NOSIG EDDC 190820Z 16013KT CAVOK 22/06 Q1023 NOSIG EDDC 190750Z 16011KT 140V200 CAVOK 21/07 Q1023 NOSIG EDDC 190720Z 16008KT 110V190 CAVOK 20/07 Q1024 NOSIG EDDC 190650Z 16009KT 110V180 CAVOK 19/07 Q1024 NOSIG EDDC 190620Z 14008KT 120V180 CAVOK 18/08 Q1024 NOSIG EDDC 190550Z 15006KT 110V170 CAVOK 17/08 Q1024 NOSIG EDDC 190520Z 15007KT CAVOK 16/08 Q1023 NOSIG EDDC 190450Z 15008KT CAVOK 15/07 Q1023 NOSIG EDDC 190420Z 15007KT CAVOK 14/07 Q1023 NOSIG EDDC 190350Z 15005KT CAVOK 14/07 Q1023 NOSIG EDDC 190320Z 15006KT CAVOK 14/06 Q1023 EDDC 190250Z 16010KT CAVOK 14/06 Q1023 EDDC 190220Z 16010KT CAVOK 15/06 Q1023 EDDC 190150Z 16008KT CAVOK 15/06 Q1023 EDDC 190120Z 16010KT CAVOK 15/06 Q1023 EDDC 190050Z 15010KT CAVOK 16/06 Q1023 EDDC 190020Z 15011KT CAVOK 16/06 Q1023 EDDC 182350Z 15011KT CAVOK 16/06 Q1024 EDDC 182320Z AUTO 15010KT //// R22/P2000N // ///////// 17/06 Q1024 EDDC 182250Z 15010KT CAVOK 17/06 Q1024 EDDC 182220Z 15009KT CAVOK 17/07 Q1024 EDDC 182150Z 15009KT CAVOK 17/07 Q1024 EDDC 182120Z 16007KT CAVOK 17/08 Q1024 EDDC 182050Z 16007KT CAVOK 17/08 Q1024 EDDC 182020Z 15007KT CAVOK 18/09 Q1024 EDDC 181950Z 15006KT CAVOK 18/09 Q1024 NOSIG EDDC 181920Z 15005KT CAVOK 19/10 Q1024 NOSIG EDDC 181850Z 15006KT 120V180 CAVOK 20/10 Q1024 NOSIG EDDC 181820Z 14005KT CAVOK 20/10 Q1024 NOSIG EDDC 181750Z 15007KT CAVOK 21/10 Q1024 NOSIG EDDC 181720Z 16009KT CAVOK 22/10 Q1024 NOSIG EDDC 181650Z 14007KT CAVOK 22/10 Q1024 NOSIG EDDC 181620Z 16007KT 120V200 CAVOK 23/10 Q1024 NOSIG EDDC 181550Z 14008KT 110V190 CAVOK 23/11 Q1024 NOSIG EDDC 181520Z 17008KT 110V220 CAVOK 23/11 Q1024 NOSIG EDDC 181450Z 16007KT 120V210 CAVOK 23/11 Q1025 NOSIG EDDC 181420Z 12007KT 070V160 CAVOK 23/11 Q1025 NOSIG EDDC 181350Z 17006KT 130V230 CAVOK 23/11 Q1025 NOSIG EDDC 181320Z 14008KT 080V180 CAVOK 23/10 Q1025 NOSIG EDDC 181250Z 14006KT 090V200 CAVOK 23/10 Q1025 NOSIG EDDC 181220Z 17006KT 100V230 CAVOK 23/11 Q1025 NOSIG

METAR Messwerte "DRESDEN/KLOTZSCH" EDDC

Zurück zur Übersicht

Ortsname
Ländercode / m ü. NN
Zeit Temperatur Taupunkt Rel.
Luftfeuchte
Luftdruck:
Altimeter
NN
Station
Wind in Beaufort
(Knoten)
Sichtweite
(Meter)
Wolken
(Meter über Grund)
Wettererscheinung
DRESDEN/KLOTZSCH
DE 227
Fr 20.05. 01:50181583 %1020
1020
993
NW 2 (3)
W - N
>= 10000Nicht signifikant 
DRESDEN/KLOTZSCH
DE 227
Fr 20.05. 01:20191578 %1019
1019
992
SSW 2 (4)
S - W
>= 10000Nicht signifikant 
DRESDEN/KLOTZSCH
DE 227
Fr 20.05. 00:50191578 %1019
1019
992
SSW 3 (8)>= 10000Nicht signifikantRegen (schwach)
DRESDEN/KLOTZSCH
DE 227
Fr 20.05. 00:20191578 %1020
1020
993
SW 3 (10)
SSW - W
>= 10000Nicht signifikant 
DRESDEN/KLOTZSCH
DE 227
Do 19.05. 23:50211464 %1020
1019
993
W 4 (12)
SW - W
>= 10000Nicht signifikantRegen (schwach)
DRESDEN/KLOTZSCH
DE 227
Do 19.05. 23:20221046 %1020
1019
993
SW 4 (12)
SSW - WNW
>= 10000Nicht signifikant 
DRESDEN/KLOTZSCH
DE 227
Do 19.05. 22:5022841 %1019
1018
992
S 4 (11)>= 10000Nicht signifikant 
DRESDEN/KLOTZSCH
DE 227
Do 19.05. 22:2022738 %1019
1018
992
S 4 (11)>= 10000Nicht signifikant 
DRESDEN/KLOTZSCH
DE 227
Do 19.05. 21:5022738 %1019
1018
992
S 4 (11)>= 10000Nicht signifikant 
DRESDEN/KLOTZSCH
DE 227
Do 19.05. 21:2022738 %1019
1018
992
S 3 (9)>= 10000Nicht signifikant 
DRESDEN/KLOTZSCH
DE 227
Do 19.05. 20:5022738 %1018
1017
991
SSO 3 (9)>= 10000Nicht signifikant 
DRESDEN/KLOTZSCH
DE 227
Do 19.05. 20:2023736 %1019
1018
992
S 3 (10)>= 10000Nicht signifikant 
DRESDEN/KLOTZSCH
DE 227
Do 19.05. 19:5024734 %1019
1018
992
S 3 (10)>= 10000Nicht signifikant 
DRESDEN/KLOTZSCH
DE 227
Do 19.05. 19:2024836 %1019
1018
992
SSO 3 (8)>= 10000Nicht signifikant 
DRESDEN/KLOTZSCH
DE 227
Do 19.05. 18:5024734 %1019
1018
992
S 3 (10)>= 10000Nicht signifikant 
DRESDEN/KLOTZSCH
DE 227
Do 19.05. 18:2025732 %1019
1018
992
S 4 (11)>= 10000Nicht signifikant 
DRESDEN/KLOTZSCH
DE 227
Do 19.05. 17:5026832 %1019
1018
992
SSO 3 (10)>= 10000Nicht signifikant 
DRESDEN/KLOTZSCH
DE 227
Do 19.05. 17:2025630 %1019
1018
992
SSO 4 (12)
SO - SSW
>= 10000Nicht signifikant 
DRESDEN/KLOTZSCH
DE 227
Do 19.05. 16:5026730 %1020
1019
993
SSO 4 (11)
OSO - S
>= 10000Nicht signifikant 
DRESDEN/KLOTZSCH
DE 227
Do 19.05. 16:2026628 %1020
1019
993
SSO 4 (12)>= 10000Nicht signifikant 
DRESDEN/KLOTZSCH
DE 227
Do 19.05. 15:5025426 %1020
1019
993
SSO 3 (10)
OSO - S
>= 10000Nicht signifikant 
DRESDEN/KLOTZSCH
DE 227
Do 19.05. 15:2025528 %1021
1020
994
SSO 4 (12)
SO - SSW
>= 10000Nicht signifikant 
DRESDEN/KLOTZSCH
DE 227
Do 19.05. 14:5025324 %1021
1020
994
S 3 (10)
SO - SSW
>= 10000Nicht signifikant 
DRESDEN/KLOTZSCH
DE 227
Do 19.05. 14:2025324 %1021
1020
994
SSO 3 (10)
OSO - S
>= 10000Nicht signifikant 
DRESDEN/KLOTZSCH
DE 227
Do 19.05. 13:5024325 %1022
1021
995
SSO 3 (10)
SO - SSW
>= 10000Nicht signifikant 
DRESDEN/KLOTZSCH
DE 227
Do 19.05. 13:2024427 %1022
1021
995
S 4 (12)
SO - SSW
>= 10000Nicht signifikant 
DRESDEN/KLOTZSCH
DE 227
Do 19.05. 12:5024529 %1022
1021
995
S 4 (12)
SO - SSW
>= 10000Nicht signifikant 
DRESDEN/KLOTZSCH
DE 227
Do 19.05. 12:2023633 %1023
1022
996
SSO 4 (12)>= 10000Nicht signifikant 
DRESDEN/KLOTZSCH
DE 227
Do 19.05. 11:5022533 %1023
1022
996
SSO 4 (13)>= 10000Nicht signifikant 
DRESDEN/KLOTZSCH
DE 227
Do 19.05. 11:2023633 %1023
1022
996
S 4 (15)
SO - SSW
>= 10000Nicht signifikant 
DRESDEN/KLOTZSCH
DE 227
Do 19.05. 10:5022635 %1023
1022
996
S 4 (12)>= 10000Nicht signifikant 
DRESDEN/KLOTZSCH
DE 227
Do 19.05. 10:2022635 %1023
1022
996
SSO 4 (13)>= 10000Nicht signifikant 
DRESDEN/KLOTZSCH
DE 227
Do 19.05. 09:5021740 %1023
1022
996
SSO 4 (11)
SO - SSW
>= 10000Nicht signifikant 
DRESDEN/KLOTZSCH
DE 227
Do 19.05. 09:2020743 %1024
1024
997
SSO 3 (8)
OSO - S
>= 10000Nicht signifikant 
DRESDEN/KLOTZSCH
DE 227
Do 19.05. 08:5019746 %1024
1024
997
SSO 3 (9)
OSO - S
>= 10000Nicht signifikant 
DRESDEN/KLOTZSCH
DE 227
Do 19.05. 08:2018852 %1024
1024
997
SO 3 (8)
OSO - S
>= 10000Nicht signifikant 
DRESDEN/KLOTZSCH
DE 227
Do 19.05. 07:5017855 %1024
1024
997
SSO 2 (6)
OSO - S
>= 10000Nicht signifikant 
DRESDEN/KLOTZSCH
DE 227
Do 19.05. 07:2016859 %1023
1023
996
SSO 3 (7)>= 10000Nicht signifikant 
DRESDEN/KLOTZSCH
DE 227
Do 19.05. 06:5015759 %1023
1023
996
SSO 3 (8)>= 10000Nicht signifikant 
DRESDEN/KLOTZSCH
DE 227
Do 19.05. 06:2014763 %1023
1023
996
SSO 3 (7)>= 10000Nicht signifikant 
DRESDEN/KLOTZSCH
DE 227
Do 19.05. 05:5014763 %1023
1023
996
SSO 2 (5)>= 10000Nicht signifikant 
DRESDEN/KLOTZSCH
DE 227
Do 19.05. 05:2014658 %1023
1023
996
SSO 2 (6)>= 10000Nicht signifikant 
DRESDEN/KLOTZSCH
DE 227
Do 19.05. 04:5014658 %1023
1023
996
SSO 3 (10)>= 10000Nicht signifikant 
DRESDEN/KLOTZSCH
DE 227
Do 19.05. 04:2015655 %1023
1023
996
SSO 3 (10)>= 10000Nicht signifikant 
DRESDEN/KLOTZSCH
DE 227
Do 19.05. 03:5015655 %1023
1023
996
SSO 3 (8)>= 10000Nicht signifikant 
DRESDEN/KLOTZSCH
DE 227
Do 19.05. 03:2015655 %1023
1023
996
SSO 3 (10)>= 10000Nicht signifikant 
DRESDEN/KLOTZSCH
DE 227
Do 19.05. 02:5016651 %1023
1023
996
SSO 3 (10)>= 10000Nicht signifikant 
DRESDEN/KLOTZSCH
DE 227
Do 19.05. 02:2016651 %1023
1023
996
SSO 4 (11)>= 10000Nicht signifikant 
DRESDEN/KLOTZSCH
DE 227
Do 19.05. 01:5016651 %1024
1024
997
SSO 4 (11)>= 10000Nicht signifikant 
DRESDEN/KLOTZSCH
DE 227
Do 19.05. 01:2017648 %1024
1024
997
SSO 3 (10)   
DRESDEN/KLOTZSCH
DE 227
Do 19.05. 00:5017648 %1024
1024
997
SSO 3 (10)>= 10000Nicht signifikant 
DRESDEN/KLOTZSCH
DE 227
Do 19.05. 00:2017752 %1024
1024
997
SSO 3 (9)>= 10000Nicht signifikant 
DRESDEN/KLOTZSCH
DE 227
Mi 18.05. 23:5017752 %1024
1024
997
SSO 3 (9)>= 10000Nicht signifikant 
DRESDEN/KLOTZSCH
DE 227
Mi 18.05. 23:2017855 %1024
1024
997
SSO 3 (7)>= 10000Nicht signifikant 
DRESDEN/KLOTZSCH
DE 227
Mi 18.05. 22:5017855 %1024
1024
997
SSO 3 (7)>= 10000Nicht signifikant 
DRESDEN/KLOTZSCH
DE 227
Mi 18.05. 22:2018956 %1024
1024
997
SSO 3 (7)>= 10000Nicht signifikant 
DRESDEN/KLOTZSCH
DE 227
Mi 18.05. 21:5018956 %1024
1024
997
SSO 2 (6)>= 10000Nicht signifikant 
DRESDEN/KLOTZSCH
DE 227
Mi 18.05. 21:20191056 %1024
1024
997
SSO 2 (5)>= 10000Nicht signifikant 
DRESDEN/KLOTZSCH
DE 227
Mi 18.05. 20:50201053 %1024
1024
997
SSO 2 (6)
OSO - S
>= 10000Nicht signifikant 
DRESDEN/KLOTZSCH
DE 227
Mi 18.05. 20:20201053 %1024
1024
997
SO 2 (5)>= 10000Nicht signifikant 
DRESDEN/KLOTZSCH
DE 227
Mi 18.05. 19:50211049 %1024
1023
997
SSO 3 (7)>= 10000Nicht signifikant 
DRESDEN/KLOTZSCH
DE 227
Mi 18.05. 19:20221046 %1024
1023
997
SSO 3 (9)>= 10000Nicht signifikant 
DRESDEN/KLOTZSCH
DE 227
Mi 18.05. 18:50221046 %1024
1023
997
SO 3 (7)>= 10000Nicht signifikant 
DRESDEN/KLOTZSCH
DE 227
Mi 18.05. 18:20231044 %1024
1023
997
SSO 3 (7)
OSO - SSW
>= 10000Nicht signifikant 
DRESDEN/KLOTZSCH
DE 227
Mi 18.05. 17:50231147 %1024
1023
997
SO 3 (8)
OSO - S
>= 10000Nicht signifikant 
DRESDEN/KLOTZSCH
DE 227
Mi 18.05. 17:20231147 %1024
1023
997
S 3 (8)
OSO - SW
>= 10000Nicht signifikant 
DRESDEN/KLOTZSCH
DE 227
Mi 18.05. 16:50231147 %1025
1024
998
SSO 3 (7)
OSO - SSW
>= 10000Nicht signifikant 
DRESDEN/KLOTZSCH
DE 227
Mi 18.05. 16:20231147 %1025
1024
998
OSO 3 (7)
ONO - SSO
>= 10000Nicht signifikant 
DRESDEN/KLOTZSCH
DE 227
Mi 18.05. 15:50231147 %1025
1024
998
S 2 (6)
SO - SW
>= 10000Nicht signifikant 
DRESDEN/KLOTZSCH
DE 227
Mi 18.05. 15:20231044 %1025
1024
998
SO 3 (8)
O - S
>= 10000Nicht signifikant 
DRESDEN/KLOTZSCH
DE 227
Mi 18.05. 14:50231044 %1025
1024
998
SO 2 (6)
O - SSW
>= 10000Nicht signifikant 
DRESDEN/KLOTZSCH
DE 227
Mi 18.05. 14:20231147 %1025
1024
998
S 2 (6)
O - SW
>= 10000Nicht signifikant 

Altimeter: Einstellung am Altimeter (Höhenmesser), die Höhe 0 muss auf diesen Luftdruckwert zeigen, damit das Gerät die Stationshöhe richtig anzeigt.

NN: Luftdruck reduziert auf "Normal Null", auf Meereshöhe, dieser von der Temperatur abhängige Wert wird bisweilen unkorrekt einfach als "Luftdruck" bezeichnet. Eigentlich nur eine fiktive Größe, die es erlaubt, Stationen auf unterschiedlichen Höhen miteinander zu vergleichen.

Station: Realer Luftdruck an der Station.